Corn, Oklahoma
Current Conditions -  °F | °C
As of 8:55 PM on Tuesday 25 Nov 2014 (Local Time) from KOJA Reporting Station
Clear Clear  
Wind Chill: 37°   Ceiling: Unl
Heat Index: 43°   Visibility: 10mi
Dew Point: 28°   Wind: 12mph
Humidity: 57%   Direction: 180°S
Pressure: 30.01"   Gusts: NA
Location:  35.38°N, 98.78°W
Report Text: KOJA 260255Z AUTO 18010KT 10SM CLR 06/M02 A3001 RMK AO2
Loading
Personal Weather Stations






























Interactive Weather Map New forecast layout! Learn more

10-Day Weather Forecast

Advertisements
Track Severe Weather on mobile